Time;durP1;ratioP1;P1;durP2;ratioP2;P2;SDS_P1;SDS_P2;PMS_P1;PMS_P2;Temp;Humidity;BMP_temperature;BMP_pressure;BME280_temperature;BME280_humidity;BME280_pressure;Samples;Min_cycle;Max_cycle;Signal;HPM_P1;HPM_P2
2021/12/29 00:01:05;;;;;;;2.28;1.90;;;5.00;80.00;;;4.08;66.12;93483.41;5038720;28;20223;-86
2021/12/29 00:03:32;;;;;;;5.18;2.25;;;5.00;80.00;;;4.11;67.05;93481.22;5038233;28;20668;-84
2021/12/29 00:05:59;;;;;;;4.00;2.42;;;5.10;80.30;;;4.16;66.42;93484.06;5037983;28;20216;-86
2021/12/29 00:08:27;;;;;;;4.15;2.38;;;5.00;80.20;;;4.23;66.78;93491.09;5034509;28;20323;-86
2021/12/29 00:10:56;;;;;;;3.17;2.47;;;5.10;80.30;;;4.25;66.68;93492.50;5018571;28;20228;-85
2021/12/29 00:13:26;;;;;;;2.85;2.22;;;5.10;80.30;;;4.30;66.47;93497.13;5053319;28;20220;-84
2021/12/29 00:15:58;;;;;;;3.33;2.22;;;5.10;80.20;;;4.29;66.12;93503.31;5021714;28;20326;-85
2021/12/29 00:18:28;;;;;;;3.85;2.30;;;5.20;80.20;;;4.31;66.09;93506.53;5021601;28;20200;-86
2021/12/29 00:20:58;;;;;;;4.97;2.30;;;5.20;80.10;;;4.29;66.10;93504.09;5037649;28;20763;-86
2021/12/29 00:23:26;;;;;;;2.60;2.15;;;5.20;80.10;;;4.30;66.05;93513.50;5021910;28;20627;-85
2021/12/29 00:25:54;;;;;;;3.70;2.28;;;5.20;80.10;;;4.33;66.05;93512.31;5037733;28;20259;-85
2021/12/29 00:28:22;;;;;;;7.47;3.00;;;5.20;80.20;;;4.33;66.21;93510.53;5037181;28;20192;-85
2021/12/29 00:30:49;;;;;;;3.83;2.53;;;5.20;80.30;;;4.40;66.79;93509.78;5036489;28;20243;-86
2021/12/29 00:33:35;;;;;;;2.95;2.25;;;5.20;80.40;;;4.43;66.90;93518.00;5054067;28;20319;-85
2021/12/29 00:36:25;;;;;;;3.53;2.08;;;5.30;80.50;;;4.49;66.84;93524.22;5053811;28;20250;-85
2021/12/29 00:39:28;;;;;;;3.17;2.25;;;5.30;80.60;;;4.53;67.35;93525.47;4998014;28;20217;-85
2021/12/29 00:42:14;;;;;;;5.82;2.50;;;5.40;80.80;;;4.62;67.25;93519.13;5048004;28;20223;-86
2021/12/29 00:45:00;;;;;;;3.58;2.15;;;5.50;80.80;;;4.68;67.17;93514.19;5040226;28;20338;-85
2021/12/29 00:47:32;;;;;;;4.10;2.00;;;5.40;80.90;;;4.75;66.91;93517.63;5036881;28;20224;-84
2021/12/29 00:50:01;;;;;;;2.83;1.88;;;5.50;80.80;;;4.76;66.49;93512.22;5037974;28;20301;-85
2021/12/29 00:52:28;;;;;;;3.38;2.15;;;5.50;80.70;;;4.77;66.28;93518.22;5037134;28;20204;-85
2021/12/29 00:54:55;;;;;;;3.90;2.15;;;5.50;80.50;;;4.71;65.91;93508.59;5016846;28;20224;-85
2021/12/29 00:57:22;;;;;;;2.97;1.83;;;5.60;80.30;;;4.69;65.91;93511.38;5017625;28;20196;-85
2021/12/29 00:59:49;;;;;;;3.92;2.03;;;5.60;80.10;;;4.63;65.64;93512.16;5047297;28;20215;-85
2021/12/29 01:02:17;;;;;;;5.05;1.90;;;5.60;79.90;;;4.53;66.10;93515.06;5053340;28;20574;-86
2021/12/29 01:04:44;;;;;;;4.88;2.50;;;5.50;79.90;;;4.51;65.89;93511.84;5053633;28;20720;-86
2021/12/29 01:07:11;;;;;;;2.33;1.90;;;5.50;79.90;;;4.48;66.03;93520.03;5036803;28;20215;-85
2021/12/29 01:09:38;;;;;;;2.47;1.92;;;5.50;80.00;;;4.46;66.41;93516.81;5036438;28;20246;-86
2021/12/29 01:12:06;;;;;;;3.08;1.88;;;5.50;80.00;;;4.47;66.55;93511.44;5036378;28;20206;-85
2021/12/29 01:14:33;;;;;;;4.68;2.00;;;5.40;80.20;;;4.51;66.88;93511.84;5020299;28;20698;-85
2021/12/29 01:17:00;;;;;;;3.30;2.00;;;5.40;80.40;;;4.61;66.42;93508.94;5019621;28;20291;-86
2021/12/29 01:19:30;;;;;;;4.47;2.20;;;5.40;80.60;;;4.67;66.36;93515.16;5053137;28;20228;-85
2021/12/29 01:22:01;;;;;;;5.10;1.83;;;5.50;80.70;;;4.72;66.55;93508.38;5016831;28;20546;-86
2021/12/29 01:24:30;;;;;;;3.22;1.98;;;5.50;80.70;;;4.76;66.45;93512.22;5017383;28;20224;-85
2021/12/29 01:26:59;;;;;;;3.55;2.00;;;5.50;80.70;;;4.83;66.74;93519.25;5030466;28;20294;-85
2021/12/29 01:29:28;;;;;;;2.95;1.85;;;5.60;80.80;;;4.89;66.49;93524.47;5036268;28;20224;-84
2021/12/29 01:31:58;;;;;;;3.05;1.80;;;5.60;80.90;;;4.95;67.13;93521.13;5036581;28;20196;-86
2021/12/29 01:34:25;;;;;;;2.13;1.70;;;5.70;81.10;;;5.01;66.95;93514.38;5036104;28;20235;-84
2021/12/29 01:36:53;;;;;;;4.40;1.83;;;5.70;81.10;;;5.08;66.85;93517.00;5018819;28;20231;-85
2021/12/29 01:39:21;;;;;;;3.55;1.80;;;5.70;81.10;;;5.13;66.59;93512.03;5036291;28;20196;-86
2021/12/29 01:41:54;;;;;;;2.60;1.90;;;5.80;81.10;;;5.14;66.61;93511.03;5036152;28;20192;-85
2021/12/29 01:44:27;;;;;;;1.60;1.50;;;5.90;81.10;;;5.23;66.34;93519.47;5052309;28;20302;-85
2021/12/29 01:46:56;;;;;;;3.03;1.67;;;5.90;81.00;;;5.22;66.76;93513.44;5035864;28;20271;-85
2021/12/29 01:49:24;;;;;;;3.10;1.70;;;5.90;81.80;;;5.27;66.78;93518.91;5035899;28;20228;-86
2021/12/29 01:52:02;;;;;;;2.40;1.60;;;6.00;80.90;;;5.26;66.73;93517.28;5069124;28;20210;-85
2021/12/29 01:54:34;;;;;;;2.47;1.30;;;6.00;81.00;;;5.31;66.90;93516.72;5037192;28;20693;-86
2021/12/29 01:57:05;;;;;;;2.35;1.52;;;6.00;80.90;;;5.34;66.43;93516.31;5036874;28;20195;-85
2021/12/29 01:59:34;;;;;;;1.70;1.38;;;6.10;80.90;;;5.38;66.58;93529.72;5035425;28;20315;-85
2021/12/29 02:02:03;;;;;;;2.20;1.38;;;6.10;80.90;;;5.40;66.39;93541.53;5019785;28;20196;-86
2021/12/29 02:04:30;;;;;;;2.63;1.50;;;6.10;80.80;;;5.41;66.38;93537.94;5019387;28;20537;-86
2021/12/29 02:07:03;;;;;;;1.67;1.45;;;6.20;80.80;;;5.39;66.31;93528.72;5036521;28;20203;-85
2021/12/29 02:09:30;;;;;;;1.58;1.40;;;6.20;80.70;;;5.40;66.79;93538.16;5052660;28;20251;-85
2021/12/29 02:11:57;;;;;;;1.50;1.40;;;6.20;80.70;;;5.43;66.63;93545.53;5035232;28;20207;-86
2021/12/29 02:14:24;;;;;;;2.47;1.50;;;6.20;80.80;;;5.45;66.17;93543.56;5035911;28;20269;-85
2021/12/29 02:16:52;;;;;;;1.30;1.20;;;6.20;80.70;;;5.44;66.04;93545.38;5035966;28;20203;-86
2021/12/29 02:19:20;;;;;;;1.45;1.33;;;6.20;80.70;;;5.48;66.24;93543.19;5035827;28;20311;-86
2021/12/29 02:22:03;;;;;;;2.88;1.65;;;6.20;80.70;;;5.48;66.59;93539.75;5035473;28;20204;-85
2021/12/29 02:24:40;;;;;;;1.67;1.30;;;6.20;80.60;;;5.50;66.38;93542.97;5037261;28;20223;-85
2021/12/29 02:27:11;;;;;;;2.53;1.42;;;6.30;80.70;;;5.50;66.31;93543.78;5036963;28;20636;-86
2021/12/29 02:29:40;;;;;;;2.40;1.35;;;6.30;80.70;;;5.53;66.45;93538.19;5085549;28;20478;-85
2021/12/29 02:32:08;;;;;;;2.28;1.50;;;6.30;80.70;;;5.54;66.45;93544.19;5031975;28;20207;-85
2021/12/29 02:34:35;;;;;;;1.77;1.52;;;6.30;80.70;;;5.49;66.16;93536.97;5067486;28;20686;-85
2021/12/29 02:37:03;;;;;;;1.50;1.35;;;6.30;80.60;;;5.50;66.32;93529.97;5035721;28;20298;-86
2021/12/29 02:39:33;;;;;;;1.30;1.15;;;6.30;80.60;;;5.51;66.45;93534.19;5034104;28;20767;-86
2021/12/29 02:42:07;;;;;;;2.65;1.08;;;6.30;80.60;;;5.51;66.14;93527.19;5035484;28;20258;-87
2021/12/29 02:44:40;;;;;;;1.92;1.30;;;6.30;80.60;;;5.54;66.55;93536.38;5019286;28;20243;-86
2021/12/29 02:47:08;;;;;;;2.60;1.30;;;6.30;80.50;;;5.50;66.34;93524.78;5035777;28;20246;-87
2021/12/29 02:49:36;;;;;;;1.73;1.50;;;6.30;80.50;;;5.51;65.85;93534.97;5019169;28;20318;-86
2021/12/29 02:52:04;;;;;;;3.95;2.03;;;6.30;80.40;;;5.47;66.06;93525.16;5035626;28;20196;-87
2021/12/29 02:54:32;;;;;;;6.20;2.55;;;6.30;80.30;;;5.39;66.05;93516.53;5031992;28;20315;-86
2021/12/29 02:56:59;;;;;;;3.88;2.28;;;6.30;80.30;;;5.42;65.86;93534.34;5050619;28;20204;-86
2021/12/29 02:59:27;;;;;;;3.03;1.88;;;6.30;80.20;;;5.37;65.95;93530.72;5036054;28;20319;-86
2021/12/29 03:01:54;;;;;;;2.08;1.50;;;6.30;80.20;;;5.35;66.08;93530.91;5011085;28;20208;-86
2021/12/29 03:04:21;;;;;;;1.65;1.40;;;6.20;80.10;;;5.31;66.01;93526.28;5023062;28;20218;-87
2021/12/29 03:06:49;;;;;;;1.98;1.30;;;6.20;80.10;;;5.33;66.25;93540.69;5039430;28;20208;-87
2021/12/29 03:09:17;;;;;;;1.90;1.20;;;6.20;80.10;;;5.29;65.92;93536.91;5023423;28;20223;-86
2021/12/29 03:11:47;;;;;;;1.30;1.20;;;6.20;80.10;;;5.28;66.24;93543.91;5038717;28;20208;-86
2021/12/29 03:14:15;;;;;;;1.30;1.20;;;6.10;80.10;;;5.28;66.13;93532.69;5019391;28;20215;-86
2021/12/29 03:16:43;;;;;;;1.10;1.10;;;6.10;80.20;;;5.28;65.85;93536.09;5029758;28;20220;-87
2021/12/29 03:19:10;;;;;;;1.23;1.10;;;6.10;80.20;;;5.30;66.48;93528.09;5029708;28;20196;-86
2021/12/29 03:21:38;;;;;;;1.25;1.20;;;6.10;80.40;;;5.32;66.42;93531.28;5035202;28;20253;-86
2021/12/29 03:24:09;;;;;;;1.10;1.10;;;6.10;80.50;;;5.35;66.10;93524.94;5044336;28;20196;-87
2021/12/29 03:26:36;;;;;;;0.90;0.90;;;6.10;80.60;;;5.39;66.40;93528.72;5046804;28;20220;-86
2021/12/29 03:29:05;;;;;;;1.20;1.10;;;6.10;80.60;;;5.41;66.41;93532.75;5053942;28;20200;-87
2021/12/29 03:31:36;;;;;;;1.00;1.00;;;6.20;80.70;;;5.46;66.13;93532.16;5067272;28;20188;-86
2021/12/29 03:34:04;;;;;;;1.20;1.10;;;6.20;80.60;;;5.49;66.21;93536.97;5038891;28;20219;-85
2021/12/29 03:36:32;;;;;;;1.25;1.20;;;6.20;80.60;;;5.49;66.29;93536.19;5035925;28;20252;-87
2021/12/29 03:39:13;;;;;;;1.30;1.20;;;6.20;80.60;;;5.51;65.83;93531.59;5138893;27;20566;-86
2021/12/29 03:41:41;;;;;;;1.10;1.10;;;6.20;80.60;;;5.53;65.91;93542.59;5076407;28;20224;-85
2021/12/29 03:44:08;;;;;;;1.20;1.10;;;6.30;80.60;;;5.53;65.94;93530.41;5066107;28;20657;-85
2021/12/29 03:46:39;;;;;;;2.40;1.23;;;6.30;80.60;;;5.52;65.88;93533.19;5071452;28;20198;-86
2021/12/29 03:49:07;;;;;;;1.20;1.10;;;6.30;80.50;;;5.52;66.16;93531.38;5079155;28;20271;-85
2021/12/29 03:51:35;;;;;;;1.42;1.10;;;6.30;80.50;;;5.50;65.98;93538.56;5060821;28;20203;-85
2021/12/29 03:54:04;;;;;;;1.30;1.10;;;6.30;80.50;;;5.53;66.19;93543.41;5069084;28;20191;-84
2021/12/29 03:56:35;;;;;;;0.90;0.90;;;6.30;80.50;;;5.54;66.08;93542.41;5078856;28;20659;-84
2021/12/29 03:59:02;;;;;;;1.13;1.13;;;6.30;80.40;;;5.54;66.03;93542.41;5053282;28;20244;-87
2021/12/29 04:01:30;;;;;;;1.17;1.08;;;6.30;80.40;;;5.44;65.92;93534.97;5066515;28;20267;-87
2021/12/29 04:03:57;;;;;;;0.90;0.90;;;6.30;80.20;;;5.43;65.68;93533.34;5053514;28;20331;-87
2021/12/29 04:06:24;;;;;;;1.00;1.00;;;6.30;80.20;;;5.46;65.87;93545.16;5044866;28;20440;-87
2021/12/29 04:08:52;;;;;;;0.90;0.90;;;6.30;80.20;;;5.46;65.82;93547.78;5043366;28;20200;-86
2021/12/29 04:11:20;;;;;;;0.98;0.98;;;6.30;80.20;;;5.42;65.89;93539.56;5075769;28;20239;-87
2021/12/29 04:13:47;;;;;;;0.93;0.93;;;6.30;80.30;;;5.43;66.03;93546.38;5050368;28;20240;-87
2021/12/29 04:16:17;;;;;;;0.90;0.90;;;6.30;80.30;;;5.44;65.80;93545.38;5060199;28;20239;-86
2021/12/29 04:19:40;;;;;;;1.00;1.00;;;6.30;80.30;;;5.45;66.03;93552.16;5058987;28;20212;-87
2021/12/29 04:21:37;;;;;;;1.00;1.00;;;6.30;80.40;;;5.44;66.22;93549.75;5074980;28;20309;-87
2021/12/29 04:24:06;;;;;;;0.90;0.90;;;6.30;80.40;;;5.45;66.08;93556.56;5070020;28;20294;-87
2021/12/29 04:26:36;;;;;;;1.00;1.00;;;6.30;80.40;;;5.50;66.36;93563.78;5067469;28;20203;-87
2021/12/29 04:29:10;;;;;;;0.90;0.90;;;6.30;80.50;;;5.48;66.07;93557.97;5049937;28;20203;-87
2021/12/29 04:31:37;;;;;;;1.50;1.10;;;6.30;81.40;;;5.49;66.34;93552.56;5049938;28;20646;-87
2021/12/29 04:34:04;;;;;;;0.90;0.90;;;6.30;80.50;;;5.52;65.96;93546.19;5068288;28;20200;-87
2021/12/29 04:36:31;;;;;;;1.70;0.90;;;6.30;80.50;;;5.53;66.01;93550.38;5067244;28;20622;-87
2021/12/29 04:39:01;;;;;;;0.75;0.75;;;6.30;80.50;;;5.56;66.13;93563.00;5049879;28;20254;-87
2021/12/29 04:41:28;;;;;;;0.70;0.70;;;6.40;80.60;;;5.58;66.26;93571.44;5050264;28;20239;-87
2021/12/29 04:43:56;;;;;;;0.85;0.80;;;6.30;80.60;;;5.58;66.27;93577.41;5065908;28;20642;-86
2021/12/29 04:46:35;;;;;;;0.95;0.95;;;6.30;80.60;;;5.53;66.39;93566.81;5051341;28;20225;-87
2021/12/29 04:49:04;;;;;;;1.23;1.08;;;6.40;80.70;;;5.63;66.43;93582.03;5069021;28;20191;-87
2021/12/29 04:51:35;;;;;;;0.93;0.90;;;6.40;80.70;;;5.66;66.71;93586.06;5075010;28;20209;-87
2021/12/29 04:54:07;;;;;;;1.23;0.95;;;6.40;80.80;;;5.69;66.49;93589.06;5054851;28;20743;-87
2021/12/29 04:56:35;;;;;;;1.10;1.00;;;6.40;80.90;;;5.74;66.47;93591.09;5038694;28;20203;-87
2021/12/29 04:59:03;;;;;;;0.90;0.90;;;6.50;80.80;;;5.73;66.53;93587.69;5054885;28;20227;-87
2021/12/29 05:01:32;;;;;;;1.90;1.45;;;6.50;80.90;;;5.79;66.61;93591.31;5047309;28;20207;-87
2021/12/29 05:03:59;;;;;;;5.07;3.45;;;6.50;80.90;;;5.82;66.58;93598.72;5071367;28;20203;-84
2021/12/29 05:09:12;;;;;;;5.93;3.90;;;6.60;80.90;;;5.82;66.33;93600.53;5057485;28;20207;-86
2021/12/29 05:11:39;;;;;;;2.83;2.10;;;6.60;80.80;;;5.86;66.53;93617.34;5021501;28;20200;-86
2021/12/29 05:14:06;;;;;;;2.00;1.70;;;6.60;80.80;;;5.87;66.49;93619.78;5054189;28;20673;-85
2021/12/29 05:16:34;;;;;;;2.85;2.50;;;6.70;80.80;;;5.90;66.52;93615.97;5054453;28;20196;-85
2021/12/29 05:19:01;;;;;;;5.10;3.63;;;6.70;80.80;;;5.92;66.42;93614.00;5037606;28;20266;-84
2021/12/29 05:21:28;;;;;;;3.35;2.38;;;6.70;80.80;;;5.93;66.44;93618.16;5037822;28;20219;-86
2021/12/29 05:23:55;;;;;;;1.80;1.70;;;6.70;80.90;;;5.92;66.33;93617.38;5021479;28;20192;-85
2021/12/29 05:26:23;;;;;;;1.30;1.20;;;6.70;80.80;;;5.97;66.45;93619.41;5037883;28;20314;-85
2021/12/29 05:28:50;;;;;;;1.00;1.00;;;6.70;80.90;;;6.00;66.21;93620.84;5028352;28;20188;-85
2021/12/29 05:31:18;;;;;;;1.23;1.20;;;6.70;81.70;;;6.01;66.17;93623.25;5064994;28;20227;-86
2021/12/29 05:33:45;;;;;;;1.30;1.30;;;6.70;81.20;;;6.00;65.80;93631.25;5060206;28;20200;-85
2021/12/29 05:36:12;;;;;;;1.38;1.27;;;6.80;80.70;;;5.98;66.31;93628.81;5035982;28;20284;-87
2021/12/29 05:38:39;;;;;;;0.98;0.93;;;6.70;80.60;;;5.98;66.59;93630.59;5044813;28;20430;-84
2021/12/29 05:41:07;;;;;;;1.38;1.17;;;6.80;80.70;;;5.98;66.34;93633.22;5064978;28;20215;-87
2021/12/29 05:43:34;;;;;;;1.35;1.35;;;6.80;80.80;;;5.96;66.51;93630.81;5036030;28;20204;-87
2021/12/29 05:46:02;;;;;;;1.10;1.10;;;6.80;80.80;;;6.01;66.63;93638.84;5035907;28;20215;-87
2021/12/29 05:48:29;;;;;;;1.20;1.10;;;6.80;80.90;;;6.03;66.83;93636.88;5049276;28;20207;-87
2021/12/29 05:50:57;;;;;;;1.00;1.00;;;6.80;81.00;;;6.01;66.96;93638.84;5067603;28;20261;-86
2021/12/29 05:53:24;;;;;;;0.90;0.90;;;6.80;81.00;;;6.08;66.68;93644.88;5054333;28;20648;-85
2021/12/29 05:55:51;;;;;;;1.00;1.00;;;6.80;81.10;;;6.09;66.90;93650.88;5055369;28;20318;-85
2021/12/29 05:58:19;;;;;;;0.98;0.90;;;6.80;81.00;;;6.12;66.77;93662.72;5055007;28;20230;-86
2021/12/29 06:00:46;;;;;;;0.85;0.85;;;6.90;81.10;;;6.11;66.77;93656.72;5037006;28;20233;-86
2021/12/29 06:03:14;;;;;;;0.90;0.90;;;6.90;81.00;;;6.16;66.63;93667.34;5049684;28;20658;-86
2021/12/29 06:05:41;;;;;;;1.05;1.00;;;6.90;81.00;;;6.15;66.92;93670.97;5029712;28;20268;-86
2021/12/29 06:08:08;;;;;;;0.93;0.90;;;6.90;81.10;;;6.18;66.86;93677.56;5073521;28;20203;-86
2021/12/29 06:10:36;;;;;;;0.73;0.73;;;6.90;81.00;;;6.17;66.72;93679.34;5070668;28;20685;-85
2021/12/29 06:13:03;;;;;;;1.00;1.00;;;6.90;81.00;;;6.19;67.28;93682.56;5038199;28;20264;-87
2021/12/29 06:15:30;;;;;;;0.90;0.90;;;6.90;81.00;;;6.18;66.72;93688.78;5053133;28;20454;-87
2021/12/29 06:17:59;;;;;;;1.20;1.10;;;7.00;81.10;;;6.25;66.87;93686.22;5048473;28;20302;-86
2021/12/29 06:20:27;;;;;;;1.48;1.38;;;7.00;81.10;;;6.27;66.82;93689.41;5056566;28;20222;-87
2021/12/29 06:22:54;;;;;;;1.27;1.27;;;7.00;81.10;;;6.25;66.64;93694.81;5061126;28;20206;-87
2021/12/29 06:25:22;;;;;;;1.75;1.10;;;7.00;81.00;;;6.28;66.59;93688.41;5053194;28;20315;-87
2021/12/29 06:27:51;;;;;;;1.48;1.38;;;7.00;81.00;;;6.33;66.74;93696.44;5045607;28;20194;-87
2021/12/29 06:30:18;;;;;;;1.30;1.20;;;7.10;81.00;;;6.29;66.59;93686.63;5056993;28;20266;-87
2021/12/29 06:32:45;;;;;;;1.05;1.00;;;7.00;81.00;;;6.34;66.55;93708.47;5068617;28;20230;-87
2021/12/29 06:35:14;;;;;;;1.50;1.10;;;7.10;81.00;;;6.34;66.64;93718.09;5046196;28;20310;-86
2021/12/29 06:37:43;;;;;;;0.90;0.90;;;7.10;81.00;;;6.30;66.66;93712.47;5056582;28;20662;-88
2021/12/29 06:40:13;;;;;;;1.13;0.90;;;7.10;80.90;;;6.34;66.49;93733.72;5043346;28;20220;-87
2021/12/29 06:42:42;;;;;;;1.00;1.00;;;7.10;80.90;;;6.30;66.61;93719.44;5047008;28;20202;-86
2021/12/29 06:45:12;;;;;;;1.10;1.10;;;7.10;80.90;;;6.36;66.94;93729.09;5041634;28;20302;-87
2021/12/29 06:47:40;;;;;;;1.00;1.00;;;7.10;80.90;;;6.36;66.83;93723.88;5026008;28;20642;-87
2021/12/29 06:50:08;;;;;;;0.88;0.88;;;7.10;80.90;;;6.38;66.80;93733.13;5020167;28;20278;-87
2021/12/29 06:52:36;;;;;;;1.48;1.20;;;7.10;80.90;;;6.39;66.29;93733.91;5022272;28;20192;-87
2021/12/29 06:55:04;;;;;;;0.98;0.98;;;7.10;81.00;;;6.36;66.58;93734.28;5057037;28;21285;-88
2021/12/29 06:57:32;;;;;;;1.10;1.00;;;7.20;81.10;;;6.41;66.65;93737.16;5055782;28;20597;-86
2021/12/29 06:59:59;;;;;;;0.98;0.98;;;7.10;81.00;;;6.45;66.59;93750.59;5055525;28;20237;-86
2021/12/29 07:02:26;;;;;;;2.15;1.08;;;7.10;81.10;;;6.44;66.60;93747.16;5069752;28;20305;-86
2021/12/29 07:04:53;;;;;;;0.90;0.90;;;7.20;81.10;;;6.48;66.52;93755.38;5052586;28;20269;-86
2021/12/29 07:07:21;;;;;;;1.10;1.00;;;7.20;81.10;;;6.45;66.51;93753.97;5053525;28;20249;-87
2021/12/29 07:09:48;;;;;;;0.90;0.90;;;7.20;81.10;;;6.50;66.37;93769.81;5055781;28;20204;-87
2021/12/29 07:12:15;;;;;;;1.00;1.00;;;7.20;81.10;;;6.48;66.64;93766.63;5051712;28;20191;-86
2021/12/29 07:14:42;;;;;;;1.05;1.05;;;7.20;81.10;;;6.54;66.83;93763.25;5069908;28;20273;-86
2021/12/29 07:17:09;;;;;;;0.90;0.90;;;7.30;81.20;;;6.59;66.81;93780.88;5031827;28;20235;-86
2021/12/29 07:19:37;;;;;;;0.98;0.98;;;7.30;81.30;;;6.61;66.53;93778.09;5035781;28;20663;-87
2021/12/29 07:22:06;;;;;;;1.13;1.02;;;7.30;81.30;;;6.67;66.97;93787.72;5020514;28;20195;-87
2021/12/29 07:24:35;;;;;;;1.50;1.40;;;7.30;82.10;;;6.69;66.47;93786.53;5072264;28;20223;-87
2021/12/29 07:27:03;;;;;;;1.63;1.20;;;7.40;81.30;;;6.72;66.60;93790.53;5072608;28;20245;-87
2021/12/29 07:29:30;;;;;;;1.55;1.45;;;7.40;81.30;;;6.71;66.71;93789.75;5072080;28;20589;-87
2021/12/29 07:31:58;;;;;;;1.33;1.23;;;7.40;81.30;;;6.76;66.64;93798.78;5038847;28;20245;-86
2021/12/29 07:34:28;;;;;;;48.33;28.35;;;7.50;81.40;;;6.81;66.68;93809.41;5069333;28;20659;-87
2021/12/29 07:36:55;;;;;;;18.23;12.63;;;7.40;81.30;;;6.84;66.69;93807.22;5035957;28;20195;-85
2021/12/29 09:03:42;;;;;;;1.40;1.30;;;4.40;87.80;;;3.53;79.63;93891.69;5103504;27;20573;-85
2021/12/29 09:06:11;;;;;;;2.15;1.23;;;4.40;90.00;;;4.08;79.57;93888.97;5063745;28;20235;-86
2021/12/29 09:08:38;;;;;;;1.25;1.15;;;4.60;90.20;;;4.74;78.59;93909.03;5076239;28;20212;-86
2021/12/29 09:11:06;;;;;;;1.48;1.30;;;5.00;90.30;;;5.23;77.02;93897.19;5029641;28;20224;-86
2021/12/29 09:13:33;;;;;;;1.40;1.30;;;5.40;90.10;;;5.66;76.04;93906.81;5049762;28;20206;-84
2021/12/29 09:16:00;;;;;;;1.33;1.27;;;5.80;90.10;;;6.03;74.86;93904.16;5049044;28;20636;-85
2021/12/29 09:18:30;;;;;;;1.38;1.27;;;6.10;89.60;;;6.32;73.91;93907.56;5033000;28;20212;-84
2021/12/29 09:21:06;;;;;;;2.38;1.33;;;6.40;89.80;;;6.54;73.03;93903.91;5048801;28;20229;-85
2021/12/29 09:23:37;;;;;;;1.27;1.20;;;6.70;88.90;;;6.71;72.23;93914.84;5049334;28;20219;-85
2021/12/29 09:26:06;;;;;;;1.30;1.20;;;7.00;88.20;;;6.82;72.00;93907.44;5048884;28;20226;-86
2021/12/29 09:28:34;;;;;;;1.20;1.20;;;7.20;87.60;;;6.85;71.57;93897.44;5082788;28;20295;-84
2021/12/29 09:31:01;;;;;;;1.40;1.30;;;7.30;87.10;;;6.94;71.66;93895.47;5062953;28;20246;-83
2021/12/29 09:33:29;;;;;;;1.25;1.10;;;7.50;86.90;;;6.98;71.76;93899.31;5049288;28;20224;-85
2021/12/29 09:36:02;;;;;;;1.00;1.00;;;7.60;86.80;;;7.13;71.49;93908.78;5049214;28;20220;-86
2021/12/29 09:38:35;;;;;;;1.20;1.20;;;7.70;86.60;;;7.18;71.56;93909.00;5033614;28;20200;-83
2021/12/29 09:41:08;;;;;;;1.17;1.17;;;7.80;86.40;;;7.27;70.29;93910.44;5048180;28;20291;-83
2021/12/29 09:43:37;;;;;;;2.15;0.98;;;7.90;86.20;;;7.29;70.72;93915.47;5048555;28;20192;-83
2021/12/29 09:46:06;;;;;;;0.95;0.95;;;7.90;85.80;;;7.32;70.25;93913.28;5048275;28;20274;-83
2021/12/29 09:48:35;;;;;;;0.90;0.90;;;8.00;85.40;;;7.33;70.21;93924.50;5031787;28;20234;-83
2021/12/29 09:51:06;;;;;;;1.00;1.00;;;8.00;85.20;;;7.33;70.24;93911.47;5027463;28;20698;-83
2021/12/29 09:53:34;;;;;;;1.23;1.13;;;8.10;85.10;;;7.31;70.20;93913.44;5028758;28;20237;-83
2021/12/29 09:56:07;;;;;;;1.08;1.08;;;8.10;85.10;;;7.40;70.30;93922.72;5024278;28;20238;-82
2021/12/29 09:58:34;;;;;;;1.30;1.20;;;8.10;85.10;;;7.40;70.30;93921.91;5037297;28;20208;-83
2021/12/29 10:01:05;;;;;;;0.90;0.90;;;8.10;85.10;;;7.45;70.30;93922.13;5049179;28;20904;-83
2021/12/29 10:03:33;;;;;;;1.25;1.15;;;8.20;85.10;;;7.46;70.11;93921.94;5044642;28;20643;-84
2021/12/29 10:06:06;;;;;;;1.20;1.10;;;8.20;85.00;;;7.53;70.08;93927.97;5031398;28;20236;-83
2021/12/29 10:08:49;;;;;;;1.25;1.17;;;8.30;85.00;;;7.59;69.83;93930.78;5048251;28;20211;-84
2021/12/29 10:11:26;;;;;;;2.58;1.40;;;8.30;85.00;;;7.61;70.02;93937.41;5031031;28;20251;-84
2021/12/29 10:13:56;;;;;;;1.20;1.20;;;8.30;84.90;;;7.66;69.72;93937.63;5041177;28;20840;-84
2021/12/29 10:16:28;;;;;;;1.70;1.60;;;8.30;84.80;;;7.66;69.77;93940.22;5034725;28;20228;-84
2021/12/29 10:19:22;;;;;;;1.60;1.50;;;8.40;84.90;;;7.72;69.05;93945.69;5034539;28;20733;-83
2021/12/29 10:21:51;;;;;;;1.67;1.58;;;8.40;84.80;;;7.71;69.58;93938.84;5035545;28;20221;-84
2021/12/29 10:24:19;;;;;;;1.85;1.40;;;8.40;84.40;;;7.67;69.63;93941.84;5050996;28;20201;-84
2021/12/29 10:26:49;;;;;;;1.45;1.35;;;8.40;84.40;;;7.67;69.56;93941.84;5034612;28;20646;-85
2021/12/29 10:29:19;;;;;;;1.58;1.25;;;8.40;84.30;;;7.67;69.57;93943.66;5018026;28;20217;-85
2021/12/29 10:32:02;;;;;;;1.10;1.10;;;8.40;84.30;;;7.72;69.29;93951.69;5018364;28;20204;-85
2021/12/29 10:34:30;;;;;;;1.10;1.10;;;8.50;84.40;;;7.75;69.38;93956.53;5034460;28;20224;-84
2021/12/29 10:37:04;;;;;;;1.40;1.30;;;8.50;84.40;;;7.80;69.55;93948.09;5018558;28;20196;-84
2021/12/29 10:39:47;;;;;;;1.50;1.23;;;8.50;84.40;;;7.85;69.33;93959.56;5034545;28;20236;-84
2021/12/29 10:42:19;;;;;;;1.20;1.20;;;8.50;84.30;;;7.90;69.16;93952.94;5051264;28;20209;-85
2021/12/29 10:44:51;;;;;;;1.30;1.20;;;8.60;84.40;;;7.93;69.10;93961.16;5034041;28;20229;-85
2021/12/29 10:47:24;;;;;;;1.20;1.10;;;8.60;84.30;;;7.93;69.10;93953.34;5034657;28;20207;-86
2021/12/29 10:50:00;;;;;;;1.23;1.10;;;8.60;84.20;;;7.92;68.96;93956.97;5033969;28;20758;-85
2021/12/29 10:52:39;;;;;;;1.20;1.13;;;8.70;84.30;;;7.97;68.80;93966.78;5037491;28;20260;-84
2021/12/29 10:55:31;;;;;;;2.22;1.50;;;8.70;84.10;;;7.95;68.82;93961.00;5040530;28;20704;-84
2021/12/29 10:58:16;;;;;;;1.90;1.80;;;8.70;84.00;;;7.92;68.77;93956.16;5055259;28;20197;-85
2021/12/29 11:00:57;;;;;;;7.45;6.65;;;8.70;83.90;;;7.91;68.86;93957.16;5044871;28;20699;-85
2021/12/29 11:03:26;;;;;;;4.15;3.75;;;8.70;83.80;;;7.91;68.75;93960.59;5034293;28;20204;-85
2021/12/29 11:06:00;;;;;;;3.92;3.15;;;8.70;83.90;;;7.93;68.79;93957.75;5034418;28;20836;-84
2021/12/29 11:08:46;;;;;;;4.22;3.55;;;8.70;83.90;;;7.92;68.74;93951.75;5034492;28;20189;-84
2021/12/29 11:11:13;;;;;;;5.07;3.42;;;8.70;84.00;;;7.91;68.89;93950.13;5026605;28;20209;-84
2021/12/29 11:13:41;;;;;;;25.05;11.93;;;8.70;83.90;;;8.00;69.18;93956.75;5031155;28;20239;-84
2021/12/29 11:16:09;;;;;;;9.95;5.78;;;8.70;84.10;;;8.00;69.00;93948.94;5014517;28;20320;-86
2021/12/29 11:18:49;;;;;;;4.32;2.78;;;8.70;84.10;;;8.07;68.89;93956.78;5014417;28;20197;-85
2021/12/29 11:21:32;;;;;;;2.00;1.80;;;8.80;84.20;;;8.06;68.86;93967.44;5033769;28;20216;-85
2021/12/29 11:24:23;;;;;;;5.78;5.13;;;8.80;84.20;;;8.09;68.80;93967.84;5033832;28;20220;-85
2021/12/29 11:26:51;;;;;;;2.40;2.20;;;8.80;84.00;;;8.07;68.83;93964.63;5065525;28;20203;-84
2021/12/29 11:29:21;;;;;;;1.50;1.40;;;8.80;84.00;;;8.08;69.03;93974.06;5033385;28;20207;-84
2021/12/29 11:32:01;;;;;;;1.50;1.40;;;8.80;83.90;;;8.10;68.89;93973.84;5032551;28;20207;-85
2021/12/29 11:34:30;;;;;;;1.65;1.55;;;8.80;83.90;;;8.07;69.44;93966.41;5017337;28;20270;-84
2021/12/29 11:37:09;;;;;;;1.75;1.65;;;8.90;84.10;;;8.10;69.23;93963.41;5033501;28;20236;-84
2021/12/29 11:39:43;;;;;;;1.60;1.50;;;8.80;84.00;;;8.13;69.23;93965.59;5032850;28;20219;-84
2021/12/29 11:42:12;;;;;;;1.55;1.40;;;8.80;84.80;;;8.16;69.10;93963.41;5032640;28;20200;-83
2021/12/29 11:44:40;;;;;;;1.67;1.58;;;8.80;84.10;;;8.24;69.25;93962.41;5017011;28;20304;-84
2021/12/29 11:47:10;;;;;;;4.35;1.77;;;8.90;84.30;;;8.30;68.94;93966.84;5032778;28;20567;-85
2021/12/29 11:49:38;;;;;;;2.83;1.90;;;8.90;84.30;;;8.30;68.75;93966.00;5032914;28;20244;-85
2021/12/29 11:52:45;;;;;;;2.05;1.80;;;8.90;84.10;;;8.33;68.57;93971.66;5041269;28;20188;-84
2021/12/29 11:55:30;;;;;;;2.10;1.50;;;9.00;84.10;;;8.34;68.67;93964.63;5015893;28;20213;-84
2021/12/29 11:58:23;;;;;;;2.10;1.80;;;9.00;84.00;;;8.32;68.67;93967.44;5040053;28;20193;-84
2021/12/29 12:01:13;;;;;;;2.58;1.70;;;9.00;83.90;;;8.32;68.65;93983.13;5016552;28;20279;-84
2021/12/29 12:04:10;;;;;;;2.42;1.85;;;9.10;83.80;;;8.32;68.46;93975.28;5030431;28;20193;-84
2021/12/29 12:06:44;;;;;;;2.28;1.90;;;9.10;83.80;;;8.32;68.87;93982.31;5016192;28;20200;-84
2021/12/29 12:09:19;;;;;;;2.40;2.20;;;9.10;83.80;;;8.34;68.57;93991.53;5032362;28;20246;-83
2021/12/29 12:11:49;;;;;;;2.15;1.83;;;9.00;83.70;;;8.34;68.67;93986.31;5065094;28;20196;-85
2021/12/29 12:14:25;;;;;;;1.83;1.67;;;9.00;83.70;;;8.36;68.87;93982.72;5030381;28;20327;-85